createdAt,value
2019-01-22T05:49:22.133Z,92.70
2019-01-22T05:51:58.363Z,92.80
2019-01-22T05:54:52.520Z,93.00
2019-01-22T05:57:23.900Z,92.40
2019-01-22T06:00:02.557Z,92.30
2019-01-22T06:02:35.777Z,92.50
2019-01-22T06:05:41.131Z,92.60
2019-01-22T06:08:23.432Z,92.60
2019-01-22T06:11:08.564Z,92.40
2019-01-22T06:14:01.559Z,92.30
2019-01-22T06:17:08.677Z,92.40
2019-01-22T06:20:17.841Z,92.60
2019-01-22T06:23:15.051Z,92.60
2019-01-22T06:26:02.585Z,92.20
2019-01-22T06:28:52.648Z,92.10
2019-01-22T06:31:28.788Z,92.00
2019-01-22T06:34:05.000Z,92.20
2019-01-22T06:36:56.539Z,92.40
2019-01-22T06:39:32.709Z,92.60
2019-01-22T06:42:27.523Z,91.90
2019-01-22T06:45:18.715Z,91.90
2019-01-22T06:47:54.907Z,91.90
2019-01-22T06:50:48.213Z,92.30
2019-01-22T06:53:21.417Z,91.70
2019-01-22T06:56:06.660Z,91.60
2019-01-22T06:58:48.895Z,91.60
2019-01-22T07:01:38.901Z,91.80
2019-01-22T07:04:12.128Z,91.90
2019-01-22T07:06:54.335Z,92.20
2019-01-22T07:09:27.615Z,92.30
2019-01-22T07:12:12.903Z,92.50
2019-01-22T07:15:02.711Z,92.50
2019-01-22T07:17:55.623Z,91.80
2019-01-22T07:21:03.874Z,93.20
2019-01-22T07:24:03.034Z,92.00
2019-01-22T07:26:51.417Z,91.60
2019-01-22T07:29:36.803Z,91.80
2019-01-22T07:32:12.568Z,91.90
2019-01-22T07:35:02.745Z,92.50
2019-01-22T07:37:38.938Z,92.00
2019-01-22T07:40:12.136Z,91.50
2019-01-22T07:43:06.722Z,91.40
2019-01-22T07:45:48.998Z,91.20
2019-01-22T07:48:22.223Z,91.40
2019-01-22T07:51:10.608Z,91.00
2019-01-22T07:53:56.178Z,91.00
2019-01-22T07:56:59.830Z,91.00
2019-01-22T07:59:51.284Z,90.60
2019-01-22T08:02:39.039Z,90.50
2019-01-22T08:05:25.747Z,90.60
2019-01-22T08:08:12.738Z,90.50
2019-01-22T08:11:05.567Z,90.40
2019-01-22T08:13:50.751Z,90.20
2019-01-22T08:16:46.819Z,90.30
2019-01-22T08:19:22.872Z,90.70
2019-01-22T08:22:22.737Z,84.40
2019-01-22T08:25:11.373Z,87.10
2019-01-22T08:27:59.820Z,89.50
2019-01-22T08:30:41.474Z,90.00
2019-01-22T08:33:14.701Z,90.20
2019-01-22T08:36:00.121Z,90.20
2019-01-22T08:38:33.433Z,89.90
2019-01-22T08:41:09.592Z,90.20
2019-01-22T08:43:45.782Z,90.10
2019-01-22T08:46:35.684Z,90.00
2019-01-22T08:49:08.911Z,89.50
2019-01-22T08:51:56.756Z,88.80
2019-01-22T08:54:38.977Z,88.90
2019-01-22T08:57:20.715Z,89.00
2019-01-22T08:59:56.487Z,89.50
2019-01-22T09:02:49.673Z,88.60
2019-01-22T09:05:48.810Z,88.90
2019-01-22T09:08:30.991Z,89.00
2019-01-22T09:11:22.073Z,88.80
2019-01-22T09:13:58.357Z,88.90
2019-01-22T09:16:43.802Z,87.60
2019-01-22T09:19:35.202Z,87.10
2019-01-22T09:22:32.703Z,86.10
2019-01-22T09:25:17.862Z,84.90
2019-01-22T09:27:59.778Z,84.50
2019-01-22T09:30:41.947Z,84.10
2019-01-22T09:33:24.069Z,81.20
2019-01-22T09:36:06.200Z,80.10
2019-01-22T09:38:36.538Z,79.60
2019-01-22T09:41:06.592Z,78.80
2019-01-22T09:43:36.762Z,78.30
2019-01-22T09:46:06.980Z,77.50
2019-01-22T09:48:37.084Z,77.60
2019-01-22T09:51:07.164Z,77.10
2019-01-22T09:53:37.577Z,77.10
2019-01-22T09:56:07.636Z,76.40
2019-01-22T09:58:37.731Z,77.10
2019-01-22T10:01:34.997Z,75.80
2019-01-22T10:04:24.098Z,74.20
2019-01-22T10:07:13.647Z,76.10
2019-01-22T10:10:02.303Z,70.80
2019-01-22T10:12:51.326Z,68.10
2019-01-22T10:15:40.183Z,66.10
2019-01-22T10:18:28.751Z,67.90
2019-01-22T10:21:17.832Z,66.10
2019-01-22T10:24:06.590Z,66.70
2019-01-22T10:26:55.342Z,64.40
2019-01-22T10:29:44.958Z,66.30
2019-01-22T10:32:34.014Z,66.30
2019-01-22T10:35:22.595Z,67.10
2019-01-22T10:38:11.330Z,66.20
2019-01-22T10:41:00.105Z,64.00
2019-01-22T10:43:49.017Z,63.10
2019-01-22T10:46:37.783Z,60.20
2019-01-22T10:49:26.834Z,56.40
2019-01-22T10:52:15.674Z,51.90
2019-01-22T10:55:06.524Z,50.40
2019-01-22T10:57:55.454Z,50.70
2019-01-22T11:00:44.087Z,51.20
2019-01-22T11:03:32.864Z,53.60
2019-01-22T11:06:21.399Z,51.00
2019-01-22T11:09:10.008Z,49.10
2019-01-22T11:11:58.743Z,47.10
2019-01-22T11:14:47.297Z,45.00
2019-01-22T11:17:36.097Z,45.70
2019-01-22T11:20:27.302Z,46.40
2019-01-22T11:23:16.197Z,45.30
2019-01-22T11:26:06.651Z,44.70
2019-01-22T11:28:56.359Z,44.30
2019-01-22T11:31:45.621Z,40.10
2019-01-22T11:34:34.541Z,40.30
2019-01-22T11:37:23.223Z,39.10
2019-01-22T11:40:18.220Z,39.50
2019-01-22T11:43:07.179Z,39.80
2019-01-22T11:45:55.996Z,40.00
2019-01-22T11:48:44.856Z,39.00
2019-01-22T11:51:33.473Z,39.70
2019-01-22T11:54:21.938Z,38.80
2019-01-22T11:57:10.775Z,39.20
2019-01-22T11:59:59.392Z,40.40
2019-01-22T12:02:49.211Z,39.30
2019-01-22T12:05:38.871Z,37.60
2019-01-22T12:08:27.730Z,39.10
2019-01-22T12:11:16.324Z,40.40
2019-01-22T12:14:05.033Z,39.80
2019-01-22T12:16:53.577Z,40.10
2019-01-22T12:19:42.931Z,43.90
2019-01-22T12:22:31.687Z,44.10
2019-01-22T12:25:20.627Z,45.70
2019-01-22T12:28:09.442Z,41.40
2019-01-22T12:30:59.438Z,39.60
2019-01-22T12:33:48.224Z,38.70
2019-01-22T12:36:37.195Z,39.90
2019-01-22T12:39:25.730Z,42.30
2019-01-22T12:42:14.623Z,41.90
2019-01-22T12:45:03.295Z,42.60
2019-01-22T12:47:51.823Z,42.20
2019-01-22T12:50:40.712Z,42.80
2019-01-22T12:53:29.367Z,42.00
2019-01-22T12:56:18.191Z,39.60
2019-01-22T12:59:06.958Z,39.60
2019-01-22T13:01:55.712Z,38.20
2019-01-22T13:04:44.802Z,38.60
2019-01-22T13:07:33.743Z,37.30
2019-01-22T13:10:22.577Z,37.20
2019-01-22T13:13:11.325Z,38.10
2019-01-22T13:16:00.311Z,38.20
2019-01-22T13:18:49.150Z,37.70
2019-01-22T13:21:37.611Z,38.20
2019-01-22T13:24:26.689Z,37.20
2019-01-22T13:27:15.571Z,38.10
2019-01-22T13:30:07.408Z,39.60
2019-01-22T13:32:56.016Z,41.10
2019-01-22T13:35:45.094Z,41.50
2019-01-22T13:38:33.649Z,42.70
2019-01-22T13:41:22.535Z,35.90
2019-01-22T13:44:11.291Z,35.70
2019-01-22T13:46:59.993Z,38.70
2019-01-22T13:49:48.722Z,43.00
2019-01-22T13:52:37.292Z,45.20
2019-01-22T13:55:28.455Z,46.80
2019-01-22T13:58:17.003Z,47.00
2019-01-22T14:01:06.106Z,47.00
2019-01-22T14:03:54.898Z,48.00
2019-01-22T14:06:43.883Z,48.30
2019-01-22T14:09:32.272Z,48.60
2019-01-22T14:12:20.939Z,49.30
2019-01-22T14:15:18.579Z,50.20
2019-01-22T14:18:07.739Z,51.90
2019-01-22T14:20:56.506Z,53.10
2019-01-22T14:23:45.480Z,54.30
2019-01-22T14:26:34.307Z,55.40
2019-01-22T14:29:23.494Z,56.60
2019-01-22T14:32:11.963Z,57.80
2019-01-22T14:35:00.769Z,58.00
2019-01-22T14:37:49.577Z,58.90
2019-01-22T14:40:38.801Z,59.20
2019-01-22T14:43:28.004Z,59.90
2019-01-22T14:46:16.671Z,61.00
2019-01-22T14:49:05.239Z,61.30
2019-01-22T14:51:54.221Z,62.10
2019-01-22T14:54:43.206Z,63.00
2019-01-22T14:57:33.021Z,63.40
2019-01-22T15:00:26.680Z,64.00
2019-01-22T15:03:15.595Z,64.60
2019-01-22T15:06:04.828Z,65.40
2019-01-22T15:08:53.599Z,66.30
2019-01-22T15:11:42.070Z,66.80
2019-01-22T15:14:31.238Z,67.60
2019-01-22T15:17:20.048Z,68.20
2019-01-22T15:20:12.049Z,68.50
2019-01-22T15:23:00.867Z,68.70
2019-01-22T15:25:49.377Z,69.00
2019-01-22T15:28:38.124Z,69.40
2019-01-22T15:31:26.979Z,70.00
2019-01-22T15:34:15.514Z,70.60
2019-01-22T15:37:04.422Z,71.00
2019-01-22T15:39:56.484Z,71.10
2019-01-22T15:42:43.401Z,71.60
2019-01-22T15:45:32.061Z,72.20
2019-01-22T15:48:21.510Z,72.50
2019-01-22T15:51:10.983Z,72.70
2019-01-22T15:54:00.150Z,73.40
2019-01-22T15:56:49.925Z,73.60
2019-01-22T15:59:39.294Z,74.00
2019-01-22T16:02:28.461Z,74.60
2019-01-22T16:05:18.856Z,75.50
2019-01-22T16:08:07.713Z,76.10
2019-01-22T16:10:56.877Z,76.40
2019-01-22T16:13:46.451Z,77.00
2019-01-22T16:16:35.719Z,77.30
2019-01-22T16:19:25.395Z,78.10
2019-01-22T16:22:14.559Z,78.20
2019-01-22T16:25:03.828Z,79.00
2019-01-22T16:27:52.783Z,79.40
2019-01-22T16:30:41.901Z,79.50
2019-01-22T16:33:30.808Z,79.80
2019-01-22T16:36:20.075Z,80.30
2019-01-22T16:39:09.060Z,80.60
2019-01-22T16:41:59.636Z,81.10
2019-01-22T16:44:49.765Z,81.30
2019-01-22T16:47:38.965Z,81.50
2019-01-22T16:50:29.671Z,81.90
2019-01-22T16:53:18.893Z,82.20
2019-01-22T16:56:07.919Z,82.50
2019-01-22T16:58:57.084Z,82.80
2019-01-22T17:01:46.143Z,82.60
2019-01-22T17:04:35.509Z,82.70
2019-01-22T17:07:24.473Z,82.60
2019-01-22T17:10:16.811Z,82.80
2019-01-22T17:13:05.873Z,82.80
2019-01-22T17:15:55.859Z,83.60
2019-01-22T17:18:44.919Z,83.20
2019-01-22T17:21:35.622Z,83.30
2019-01-22T17:24:26.324Z,83.30
2019-01-22T17:27:15.593Z,83.40
2019-01-22T17:30:08.138Z,83.30
2019-01-22T17:33:02.725Z,84.10
2019-01-22T17:35:52.812Z,83.40
2019-01-22T17:38:43.107Z,83.10
2019-01-22T17:41:33.445Z,83.20
2019-01-22T17:44:23.172Z,83.20
2019-01-22T17:47:15.725Z,83.60
2019-01-22T17:50:15.121Z,83.80
2019-01-22T17:53:07.560Z,83.90
2019-01-22T17:55:57.855Z,84.10
2019-01-22T17:58:46.917Z,84.40
2019-01-22T18:01:36.334Z,84.80
2019-01-22T18:04:25.963Z,84.80
2019-01-22T18:07:16.770Z,84.80
2019-01-22T18:10:11.012Z,84.90
2019-01-22T18:13:00.782Z,84.40
2019-01-22T18:15:52.144Z,84.40
2019-01-22T18:18:45.964Z,84.20
2019-01-22T18:21:32.317Z,84.20
2019-01-22T18:24:22.764Z,84.20
2019-01-22T18:27:20.776Z,84.00
2019-01-22T18:30:18.660Z,83.50
2019-01-22T18:33:10.338Z,83.20
2019-01-22T18:35:59.547Z,83.10
2019-01-22T18:38:48.971Z,82.90
2019-01-22T18:41:38.078Z,82.40
2019-01-22T18:44:28.310Z,82.20
2019-01-22T18:47:17.848Z,82.00
2019-01-22T18:50:19.578Z,81.80
2019-01-22T18:53:08.718Z,81.60
2019-01-22T18:55:59.587Z,81.80
2019-01-22T18:58:50.628Z,81.70
2019-01-22T19:01:41.774Z,81.70
2019-01-22T19:04:32.492Z,81.50
2019-01-22T19:07:23.557Z,81.50
2019-01-22T19:10:18.142Z,81.30
2019-01-22T19:13:08.838Z,81.50
2019-01-22T19:15:58.204Z,82.20
2019-01-22T19:18:51.608Z,81.90
2019-01-22T19:21:43.728Z,81.90
2019-01-22T19:24:34.205Z,81.90
2019-01-22T19:27:24.558Z,82.00
2019-01-22T19:30:16.643Z,82.10
2019-01-22T19:33:08.536Z,82.20
2019-01-22T19:36:01.356Z,82.30
2019-01-22T19:38:51.037Z,82.50
2019-01-22T19:41:41.063Z,82.60
2019-01-22T19:44:32.806Z,82.50
2019-01-22T19:47:22.423Z,82.60
2019-01-22T19:50:14.819Z,82.70
2019-01-22T19:53:05.957Z,82.90
2019-01-22T19:55:55.958Z,83.00
2019-01-22T19:58:45.335Z,83.10
2019-01-22T20:01:36.245Z,83.20
2019-01-22T20:04:25.693Z,83.60
2019-01-22T20:07:15.641Z,84.20
2019-01-22T20:10:09.647Z,84.40
2019-01-22T20:12:59.958Z,84.40
2019-01-22T20:15:50.863Z,85.60
2019-01-22T20:18:41.565Z,85.10
2019-01-22T20:21:30.934Z,86.00
2019-01-22T20:24:21.717Z,86.20
2019-01-22T20:28:46.441Z,86.60
2019-01-22T20:31:13.898Z,87.70
2019-01-22T20:33:45.971Z,88.90
2019-01-22T20:39:25.827Z,87.20
2019-01-22T20:41:57.889Z,88.40
2019-01-22T20:44:30.059Z,88.50
2019-01-22T20:47:01.198Z,88.80
2019-01-22T20:49:31.830Z,89.20
2019-01-22T20:52:02.199Z,89.70
2019-01-22T20:54:32.683Z,89.60
2019-01-22T20:57:03.212Z,89.40
2019-01-22T21:01:43.888Z,89.60
2019-01-22T21:05:51.187Z,89.50
2019-01-22T21:09:56.743Z,89.30
2019-01-22T21:14:02.191Z,84.00
2019-01-22T21:18:07.645Z,86.30
2019-01-22T21:22:13.098Z,88.40
2019-01-22T21:26:18.549Z,89.30
2019-01-22T21:30:27.280Z,89.80
2019-01-22T21:34:32.751Z,90.10
2019-01-22T21:38:38.226Z,90.20
2019-01-22T21:42:43.844Z,90.40
2019-01-22T21:46:49.295Z,90.50
2019-01-22T21:50:55.366Z,90.50
2019-01-22T21:55:00.817Z,90.80
2019-01-22T21:59:06.380Z,91.00
2019-01-22T22:03:11.825Z,91.20
2019-01-22T22:07:17.175Z,91.20
2019-01-22T22:11:22.831Z,91.30
2019-01-22T22:15:28.385Z,91.50
2019-01-22T22:19:33.840Z,91.60
2019-01-22T22:23:39.190Z,91.80
2019-01-22T22:27:45.460Z,91.80
2019-01-22T22:31:51.836Z,91.90
2019-01-22T22:35:57.391Z,92.10
2019-01-22T22:40:02.948Z,92.20
2019-01-22T22:44:08.298Z,92.30
2019-01-22T22:48:13.749Z,92.20
2019-01-22T22:52:19.108Z,92.40
2019-01-22T22:56:24.450Z,92.50
2019-01-22T23:00:36.457Z,92.50
2019-01-22T23:04:43.124Z,92.60
2019-01-22T23:08:48.193Z,92.80
2019-01-22T23:12:53.302Z,92.70
2019-01-22T23:16:58.411Z,92.60
2019-01-22T23:21:03.482Z,92.50
2019-01-22T23:25:08.593Z,92.50
2019-01-22T23:29:13.674Z,92.50
2019-01-22T23:33:18.796Z,92.40
2019-01-22T23:37:23.927Z,92.40
2019-01-22T23:41:29.024Z,92.30
2019-01-22T23:45:35.762Z,92.20
2019-01-22T23:49:40.830Z,92.30
2019-01-22T23:53:45.936Z,92.30
2019-01-22T23:57:51.084Z,92.20
